Terminal Aerodrome Forecast
Issued by NWS Pittsburgh, PA

Current Version | Previous Version | Graphics & Text | Print | Product List | Glossary On
Versions: 1 2 3 4 5 6 7 8 9 10 11 12 13 14 15 16 17 18 19 20 21 22 23 24 25 26 27 28 29
480
FTUS41 KPBZ 050855 AAA
TAFPIT
TAF AMD
KPIT 050855Z 0509/0612 26012G20KT 5SM -RA BR OVC015
     FM051200 28009KT P6SM BKN020
     FM051800 32007KT P6SM BKN040
     FM060200 07003KT P6SM BKN200=

USA.gov is the U.S. government's official web portal to all federal, state and local government web resources and services.